Date,TemperatureHighF,TemperatureAvgF,TemperatureLowF,DewpointHighF,DewpointAvgF,DewpointLowF,HumidityHigh,HumidityAvg,HumidityLow,PressureMaxIn,PressureMinIn,WindSpeedMaxMPH,WindSpeedAvgMPH,GustSpeedMaxMPH,PrecipitationSumIn
2013-1-1,38,36,29,32,29,20,80,75,68,30.04,29.89,9,2,13,0.00
2013-1-2,32,27,22,20,18,16,84,68,58,30.24,30.02,11,2,17,0.00
2013-1-3,32,26,17,23,19,15,92,76,58,30.25,30.14,9,2,12,0.00
2013-1-4,38,33,26,25,24,21,82,68,59,30.16,30.04,19,5,21,0.00
2013-1-5,38,31,24,26,23,21,91,73,61,30.37,30.10,13,3,17,0.00
2013-1-6,45,35,26,34,30,25,96,83,61,30.23,30.02,5,0,11,0.00
2013-1-7,42,35,22,33,29,20,94,78,63,30.42,30.12,7,2,11,0.00
2013-1-8,45,30,21,35,26,19,95,87,64,30.43,30.38,5,0,8,0.00
2013-1-9,44,31,22,39,29,21,100,92,78,30.41,30.21,4,0,8,0.00
2013-1-10,47,37,27,32,30,26,97,77,54,30.58,30.34,8,2,12,0.00
2013-1-11,44,38,30,41,36,28,98,89,77,30.52,30.11,5,1,9,0.30
2013-1-12,51,44,40,48,43,40,99,97,88,30.19,30.10,4,0,6,0.00
2013-1-13,47,45,42,47,45,41,100,100,99,30.14,29.98,6,0,8,0.00
2013-1-14,52,48,40,52,44,35,100,87,60,30.30,29.91,7,1,12,0.14
2013-1-15,40,37,34,39,32,29,99,84,73,30.36,30.20,5,1,9,0.18
2013-1-16,35,34,33,35,33,32,98,97,94,30.19,29.86,5,0,9,0.39
2013-1-17,40,37,33,36,32,30,98,83,70,30.14,29.97,7,1,12,0.00
2013-1-18,36,29,24,31,19,11,86,66,46,30.48,30.03,9,3,17,0.00
2013-1-19,50,35,23,33,26,16,89,71,50,30.40,29.93,10,2,14,0.00
2013-1-20,53,37,27,35,24,14,92,64,29,30.10,29.78,22,4,30,0.00
2013-1-21,32,26,21,24,16,13,85,66,56,30.13,29.88,13,2,19,0.00
2013-1-22,23,16,12,14,-1,-100,68,51,43,30.29,29.94,14,-17,24,0.00
2013-1-23,19,13,8,8,3,0,82,63,47,30.32,30.19,12,2,19,0.00
2013-1-24,25,19,15,10,5,2,76,57,39,30.50,30.14,13,3,20,0.00
2013-1-25,20,14,3,15,6,0,90,70,50,30.50,30.10,6,1,12,0.05
2013-1-26,26,16,6,15,11,3,93,80,59,30.44,30.10,8,2,13,0.00
2013-1-27,33,19,4,19,12,2,91,78,54,30.60,30.44,7,1,11,0.00
2013-1-28,34,30,22,33,29,19,98,94,84,30.52,30.06,6,1,12,0.18
2013-1-29,55,41,33,51,40,33,99,96,84,30.14,30.02,5,0,5,0.00
2013-1-30,63,49,35,60,49,34,100,97,90,30.01,29.32,14,2,17,1.02
2013-1-31,56,40,28,56,30,13,100,69,49,29.84,29.11,24,9,32,0.98